sensor_id;sensor_type;location;lat;lon;timestamp;pressure;altitude;pressure_sealevel;temperature;humidity
28306;BME280;7516;43.570;1.448;2023-09-18T00:01:53;99134.41;;;19.76;100.00
28306;BME280;7516;43.570;1.448;2023-09-18T00:04:21;99141.31;;;19.77;100.00
28306;BME280;7516;43.570;1.448;2023-09-18T00:06:48;99150.13;;;19.77;100.00
28306;BME280;7516;43.570;1.448;2023-09-18T00:09:16;99150.66;;;19.79;100.00
28306;BME280;7516;43.570;1.448;2023-09-18T00:11:43;99149.31;;;19.77;100.00
28306;BME280;7516;43.570;1.448;2023-09-18T00:14:11;99149.53;;;19.75;100.00
28306;BME280;7516;43.570;1.448;2023-09-18T00:16:38;99163.66;;;19.76;100.00
28306;BME280;7516;43.570;1.448;2023-09-18T00:19:07;99168.22;;;19.80;100.00
28306;BME280;7516;43.570;1.448;2023-09-18T00:21:35;99157.84;;;19.79;100.00
28306;BME280;7516;43.570;1.448;2023-09-18T00:24:03;99152.53;;;19.79;100.00
28306;BME280;7516;43.570;1.448;2023-09-18T00:26:30;99152.03;;;19.82;100.00
28306;BME280;7516;43.570;1.448;2023-09-18T00:28:58;99167.34;;;19.75;100.00
28306;BME280;7516;43.570;1.448;2023-09-18T00:31:25;99168.50;;;19.79;100.00
28306;BME280;7516;43.570;1.448;2023-09-18T00:33:53;99178.06;;;19.80;100.00
28306;BME280;7516;43.570;1.448;2023-09-18T00:36:22;99176.19;;;19.80;100.00
28306;BME280;7516;43.570;1.448;2023-09-18T00:38:49;99169.84;;;19.81;100.00
28306;BME280;7516;43.570;1.448;2023-09-18T00:41:17;99171.69;;;19.81;100.00
28306;BME280;7516;43.570;1.448;2023-09-18T00:43:44;99174.34;;;19.81;100.00
28306;BME280;7516;43.570;1.448;2023-09-18T00:46:12;99164.75;;;19.80;100.00
28306;BME280;7516;43.570;1.448;2023-09-18T00:48:40;99178.84;;;19.80;100.00
28306;BME280;7516;43.570;1.448;2023-09-18T00:51:08;99173.88;;;19.84;100.00
28306;BME280;7516;43.570;1.448;2023-09-18T00:53:38;99178.38;;;19.83;100.00
28306;BME280;7516;43.570;1.448;2023-09-18T00:56:05;99175.16;;;19.81;100.00
28306;BME280;7516;43.570;1.448;2023-09-18T00:58:33;99170.25;;;19.73;100.00
28306;BME280;7516;43.570;1.448;2023-09-18T01:01:01;99171.81;;;19.69;100.00
28306;BME280;7516;43.570;1.448;2023-09-18T01:03:29;99173.25;;;19.77;100.00
28306;BME280;7516;43.570;1.448;2023-09-18T01:05:57;99174.84;;;19.78;100.00
28306;BME280;7516;43.570;1.448;2023-09-18T01:08:26;99168.50;;;19.79;100.00
28306;BME280;7516;43.570;1.448;2023-09-18T01:10:59;99169.22;;;19.74;100.00
28306;BME280;7516;43.570;1.448;2023-09-18T01:13:37;99169.44;;;19.73;100.00
28306;BME280;7516;43.570;1.448;2023-09-18T01:16:10;99167.34;;;19.75;100.00
28306;BME280;7516;43.570;1.448;2023-09-18T01:18:49;99172.66;;;19.75;100.00
28306;BME280;7516;43.570;1.448;2023-09-18T01:21:18;99179.03;;;19.74;100.00
28306;BME280;7516;43.570;1.448;2023-09-18T01:23:47;99178.47;;;19.72;100.00
28306;BME280;7516;43.570;1.448;2023-09-18T01:26:15;99169.63;;;19.66;100.00
28306;BME280;7516;43.570;1.448;2023-09-18T01:28:42;99167.78;;;19.67;100.00
28306;BME280;7516;43.570;1.448;2023-09-18T01:31:10;99168.75;;;19.61;100.00
28306;BME280;7516;43.570;1.448;2023-09-18T01:33:37;99171.97;;;19.63;100.00
28306;BME280;7516;43.570;1.448;2023-09-18T01:36:07;99173.56;;;19.64;100.00
28306;BME280;7516;43.570;1.448;2023-09-18T01:38:36;99175.13;;;19.60;100.00
28306;BME280;7516;43.570;1.448;2023-09-18T01:41:05;99169.81;;;19.60;100.00
28306;BME280;7516;43.570;1.448;2023-09-18T01:43:33;99162.88;;;19.59;100.00
28306;BME280;7516;43.570;1.448;2023-09-18T01:46:01;99169.47;;;19.56;100.00
28306;BME280;7516;43.570;1.448;2023-09-18T01:48:29;99167.06;;;19.54;100.00
28306;BME280;7516;43.570;1.448;2023-09-18T01:50:57;99160.13;;;19.53;100.00
28306;BME280;7516;43.570;1.448;2023-09-18T01:53:24;99153.72;;;19.49;100.00
28306;BME280;7516;43.570;1.448;2023-09-18T01:55:52;99143.50;;;19.46;100.00
28306;BME280;7516;43.570;1.448;2023-09-18T01:58:21;99148.25;;;19.44;100.00
28306;BME280;7516;43.570;1.448;2023-09-18T02:00:48;99147.72;;;19.42;100.00
28306;BME280;7516;43.570;1.448;2023-09-18T02:03:16;99155.13;;;19.40;100.00
28306;BME280;7516;43.570;1.448;2023-09-18T02:05:44;99158.84;;;19.39;100.00
28306;BME280;7516;43.570;1.448;2023-09-18T02:08:11;99147.56;;;19.32;100.00
28306;BME280;7516;43.570;1.448;2023-09-18T02:10:39;99145.97;;;19.31;100.00
28306;BME280;7516;43.570;1.448;2023-09-18T02:13:06;99136.38;;;19.30;100.00
28306;BME280;7516;43.570;1.448;2023-09-18T02:15:37;99133.06;;;19.23;100.00
28306;BME280;7516;43.570;1.448;2023-09-18T02:18:05;99141.84;;;19.24;100.00
28306;BME280;7516;43.570;1.448;2023-09-18T02:20:40;99138.28;;;19.18;100.00
28306;BME280;7516;43.570;1.448;2023-09-18T02:23:07;99137.75;;;19.16;100.00
28306;BME280;7516;43.570;1.448;2023-09-18T02:25:35;99134.06;;;19.17;100.00
28306;BME280;7516;43.570;1.448;2023-09-18T02:28:03;99136.38;;;19.13;100.00
28306;BME280;7516;43.570;1.448;2023-09-18T02:30:31;99132.91;;;19.13;100.00
28306;BME280;7516;43.570;1.448;2023-09-18T02:32:59;99129.69;;;19.11;100.00
28306;BME280;7516;43.570;1.448;2023-09-18T02:35:29;99134.44;;;19.09;100.00
28306;BME280;7516;43.570;1.448;2023-09-18T02:37:56;99126.47;;;19.09;100.00
28306;BME280;7516;43.570;1.448;2023-09-18T02:40:26;99124.06;;;19.07;100.00
28306;BME280;7516;43.570;1.448;2023-09-18T02:42:53;99123.25;;;19.07;100.00
28306;BME280;7516;43.570;1.448;2023-09-18T02:45:20;99112.66;;;19.07;100.00
28306;BME280;7516;43.570;1.448;2023-09-18T02:47:48;99121.66;;;19.06;100.00
28306;BME280;7516;43.570;1.448;2023-09-18T02:50:17;99122.94;;;19.03;100.00
28306;BME280;7516;43.570;1.448;2023-09-18T02:52:44;99122.13;;;19.03;100.00
28306;BME280;7516;43.570;1.448;2023-09-18T02:55:12;99122.06;;;18.98;100.00
28306;BME280;7516;43.570;1.448;2023-09-18T02:57:39;99119.88;;;18.95;100.00
28306;BME280;7516;43.570;1.448;2023-09-18T03:00:08;99128.56;;;18.90;100.00
28306;BME280;7516;43.570;1.448;2023-09-18T03:02:35;99144.75;;;18.89;100.00
28306;BME280;7516;43.570;1.448;2023-09-18T03:05:04;99148.03;;;18.96;100.00
28306;BME280;7516;43.570;1.448;2023-09-18T03:07:32;99143.53;;;18.96;100.00
28306;BME280;7516;43.570;1.448;2023-09-18T03:10:00;99144.34;;;18.97;100.00
28306;BME280;7516;43.570;1.448;2023-09-18T03:12:28;99137.75;;;18.99;100.00
28306;BME280;7516;43.570;1.448;2023-09-18T03:14:55;99130.97;;;18.92;100.00
28306;BME280;7516;43.570;1.448;2023-09-18T03:17:23;99133.06;;;18.90;100.00
28306;BME280;7516;43.570;1.448;2023-09-18T03:19:50;99132.03;;;18.91;100.00
28306;BME280;7516;43.570;1.448;2023-09-18T03:22:18;99128.66;;;18.95;100.00
28306;BME280;7516;43.570;1.448;2023-09-18T03:24:46;99125.41;;;18.93;100.00
28306;BME280;7516;43.570;1.448;2023-09-18T03:27:14;99123.56;;;18.94;100.00
28306;BME280;7516;43.570;1.448;2023-09-18T03:29:42;99127.03;;;18.94;100.00
28306;BME280;7516;43.570;1.448;2023-09-18T03:32:09;99134.69;;;18.91;100.00
28306;BME280;7516;43.570;1.448;2023-09-18T03:34:38;99145.31;;;18.91;100.00
28306;BME280;7516;43.570;1.448;2023-09-18T03:37:06;99147.97;;;18.91;100.00
28306;BME280;7516;43.570;1.448;2023-09-18T03:39:33;99142.91;;;18.89;100.00
28306;BME280;7516;43.570;1.448;2023-09-18T03:42:02;99123.50;;;18.89;100.00
28306;BME280;7516;43.570;1.448;2023-09-18T03:44:30;99122.47;;;18.90;100.00
28306;BME280;7516;43.570;1.448;2023-09-18T03:46:59;99101.69;;;18.87;100.00
28306;BME280;7516;43.570;1.448;2023-09-18T03:49:28;99107.22;;;18.85;100.00
28306;BME280;7516;43.570;1.448;2023-09-18T03:51:55;99125.25;;;18.83;100.00
28306;BME280;7516;43.570;1.448;2023-09-18T03:54:23;99127.59;;;18.79;100.00
28306;BME280;7516;43.570;1.448;2023-09-18T03:56:50;99119.88;;;18.78;100.00
28306;BME280;7516;43.570;1.448;2023-09-18T03:59:19;99120.66;;;18.78;100.00
28306;BME280;7516;43.570;1.448;2023-09-18T04:01:46;99112.47;;;18.80;100.00
28306;BME280;7516;43.570;1.448;2023-09-18T04:04:14;99105.53;;;18.79;100.00
28306;BME280;7516;43.570;1.448;2023-09-18T04:06:43;99109.41;;;18.71;100.00
28306;BME280;7516;43.570;1.448;2023-09-18T04:09:15;99101.66;;;18.70;100.00
28306;BME280;7516;43.570;1.448;2023-09-18T04:11:44;99106.41;;;18.68;100.00
28306;BME280;7516;43.570;1.448;2023-09-18T04:14:11;99114.38;;;18.68;100.00
28306;BME280;7516;43.570;1.448;2023-09-18T04:16:40;99125.78;;;18.68;100.00
28306;BME280;7516;43.570;1.448;2023-09-18T04:19:09;99140.59;;;18.64;100.00
28306;BME280;7516;43.570;1.448;2023-09-18T04:21:36;99139.53;;;18.65;100.00
28306;BME280;7516;43.570;1.448;2023-09-18T04:24:04;99133.69;;;18.63;100.00
28306;BME280;7516;43.570;1.448;2023-09-18T04:26:32;99126.19;;;18.60;100.00
28306;BME280;7516;43.570;1.448;2023-09-18T04:29:00;99125.63;;;18.58;100.00
28306;BME280;7516;43.570;1.448;2023-09-18T04:31:28;99128.84;;;18.60;100.00
28306;BME280;7516;43.570;1.448;2023-09-18T04:33:57;99132.97;;;18.56;100.00
28306;BME280;7516;43.570;1.448;2023-09-18T04:36:24;99128.50;;;18.57;100.00
28306;BME280;7516;43.570;1.448;2023-09-18T04:38:52;99128.72;;;18.55;100.00
28306;BME280;7516;43.570;1.448;2023-09-18T04:41:20;99123.66;;;18.54;100.00
28306;BME280;7516;43.570;1.448;2023-09-18T04:43:47;99128.63;;;18.50;100.00
28306;BME280;7516;43.570;1.448;2023-09-18T04:46:15;99128.31;;;18.47;100.00
28306;BME280;7516;43.570;1.448;2023-09-18T04:48:42;99117.81;;;18.40;100.00
28306;BME280;7516;43.570;1.448;2023-09-18T04:51:11;99125.88;;;18.45;100.00
28306;BME280;7516;43.570;1.448;2023-09-18T04:53:39;99126.00;;;18.38;100.00
28306;BME280;7516;43.570;1.448;2023-09-18T04:56:07;99122.59;;;18.38;100.00
28306;BME280;7516;43.570;1.448;2023-09-18T04:58:37;99124.66;;;18.36;100.00
28306;BME280;7516;43.570;1.448;2023-09-18T05:01:04;99120.16;;;18.36;100.00
28306;BME280;7516;43.570;1.448;2023-09-18T05:03:34;99125.47;;;18.36;100.00
28306;BME280;7516;43.570;1.448;2023-09-18T05:06:02;99130.53;;;18.38;100.00
28306;BME280;7516;43.570;1.448;2023-09-18T05:08:31;99126.59;;;18.40;100.00
28306;BME280;7516;43.570;1.448;2023-09-18T05:10:59;99122.09;;;18.41;100.00
28306;BME280;7516;43.570;1.448;2023-09-18T05:13:27;99114.63;;;18.38;100.00
28306;BME280;7516;43.570;1.448;2023-09-18T05:15:54;99122.81;;;18.36;100.00
28306;BME280;7516;43.570;1.448;2023-09-18T05:18:22;99138.94;;;18.47;100.00
28306;BME280;7516;43.570;1.448;2023-09-18T05:20:49;99136.59;;;18.50;100.00
28306;BME280;7516;43.570;1.448;2023-09-18T05:23:17;99122.03;;;18.53;100.00
28306;BME280;7516;43.570;1.448;2023-09-18T05:25:47;99112.81;;;18.55;100.00
28306;BME280;7516;43.570;1.448;2023-09-18T05:28:14;99117.66;;;18.58;100.00
28306;BME280;7516;43.570;1.448;2023-09-18T05:30:42;99120.31;;;18.58;100.00
28306;BME280;7516;43.570;1.448;2023-09-18T05:33:09;99115.34;;;18.62;100.00
28306;BME280;7516;43.570;1.448;2023-09-18T05:35:40;99120.25;;;18.70;100.00
28306;BME280;7516;43.570;1.448;2023-09-18T05:38:08;99115.25;;;18.73;100.00
28306;BME280;7516;43.570;1.448;2023-09-18T05:40:37;99123.56;;;18.77;100.00
28306;BME280;7516;43.570;1.448;2023-09-18T05:43:06;99121.72;;;18.77;100.00
28306;BME280;7516;43.570;1.448;2023-09-18T05:45:34;99120.19;;;18.82;100.00
28306;BME280;7516;43.570;1.448;2023-09-18T05:48:02;99125.50;;;18.82;100.00
28306;BME280;7516;43.570;1.448;2023-09-18T05:50:29;99132.09;;;18.79;100.00
28306;BME280;7516;43.570;1.448;2023-09-18T05:52:58;99136.66;;;18.84;100.00
28306;BME280;7516;43.570;1.448;2023-09-18T05:55:27;99134.34;;;18.87;100.00
28306;BME280;7516;43.570;1.448;2023-09-18T05:57:54;99134.94;;;18.89;100.00
28306;BME280;7516;43.570;1.448;2023-09-18T06:00:24;99134.19;;;18.94;100.00
28306;BME280;7516;43.570;1.448;2023-09-18T06:02:52;99136.16;;;18.98;100.00
28306;BME280;7516;43.570;1.448;2023-09-18T06:05:20;99132.09;;;18.96;100.00
28306;BME280;7516;43.570;1.448;2023-09-18T06:07:48;99127.59;;;18.96;100.00
28306;BME280;7516;43.570;1.448;2023-09-18T06:10:16;99134.84;;;19.01;100.00
28306;BME280;7516;43.570;1.448;2023-09-18T06:12:44;99130.66;;;19.05;100.00
28306;BME280;7516;43.570;1.448;2023-09-18T06:15:12;99133.91;;;19.07;100.00
28306;BME280;7516;43.570;1.448;2023-09-18T06:17:42;99137.09;;;19.09;100.00
28306;BME280;7516;43.570;1.448;2023-09-18T06:20:11;99143.53;;;19.13;100.00
28306;BME280;7516;43.570;1.448;2023-09-18T06:22:40;99139.91;;;19.19;100.00
28306;BME280;7516;43.570;1.448;2023-09-18T06:25:09;99141.75;;;19.18;100.00
28306;BME280;7516;43.570;1.448;2023-09-18T06:27:37;99144.81;;;19.27;100.00
28306;BME280;7516;43.570;1.448;2023-09-18T06:30:06;99153.69;;;19.33;100.00
28306;BME280;7516;43.570;1.448;2023-09-18T06:32:33;99149.25;;;19.38;100.00
28306;BME280;7516;43.570;1.448;2023-09-18T06:35:05;99154.09;;;19.41;100.00
28306;BME280;7516;43.570;1.448;2023-09-18T06:37:32;99155.69;;;19.42;100.00
28306;BME280;7516;43.570;1.448;2023-09-18T06:40:00;99163.16;;;19.45;100.00
28306;BME280;7516;43.570;1.448;2023-09-18T06:42:30;99163.78;;;19.47;100.00
28306;BME280;7516;43.570;1.448;2023-09-18T06:44:57;99157.41;;;19.48;100.00
28306;BME280;7516;43.570;1.448;2023-09-18T06:47:25;99153.34;;;19.46;100.00
28306;BME280;7516;43.570;1.448;2023-09-18T06:49:55;99160.13;;;19.53;100.00
28306;BME280;7516;43.570;1.448;2023-09-18T06:52:25;99156.41;;;19.54;100.00
28306;BME280;7516;43.570;1.448;2023-09-18T06:54:55;99161.25;;;19.58;100.00
28306;BME280;7516;43.570;1.448;2023-09-18T06:57:24;99163.75;;;19.64;100.00
28306;BME280;7516;43.570;1.448;2023-09-18T06:59:51;99167.22;;;19.65;100.00
28306;BME280;7516;43.570;1.448;2023-09-18T07:02:22;99171.00;;;19.69;100.00
28306;BME280;7516;43.570;1.448;2023-09-18T07:04:50;99168.34;;;19.69;100.00
28306;BME280;7516;43.570;1.448;2023-09-18T07:07:17;99181.22;;;19.77;100.00
28306;BME280;7516;43.570;1.448;2023-09-18T07:09:53;99188.78;;;19.85;100.00
28306;BME280;7516;43.570;1.448;2023-09-18T07:12:20;99196.75;;;19.85;100.00
28306;BME280;7516;43.570;1.448;2023-09-18T07:14:49;99204.22;;;19.88;100.00
28306;BME280;7516;43.570;1.448;2023-09-18T07:17:16;99207.22;;;19.91;100.00
28306;BME280;7516;43.570;1.448;2023-09-18T07:19:44;99205.34;;;19.92;100.00
28306;BME280;7516;43.570;1.448;2023-09-18T07:22:12;99212.59;;;19.97;100.00
28306;BME280;7516;43.570;1.448;2023-09-18T07:24:40;99231.47;;;19.95;100.00
28306;BME280;7516;43.570;1.448;2023-09-18T07:27:10;99232.03;;;19.97;100.00
28306;BME280;7516;43.570;1.448;2023-09-18T07:29:37;99240.66;;;20.04;100.00
28306;BME280;7516;43.570;1.448;2023-09-18T07:32:05;99240.66;;;20.04;100.00
28306;BME280;7516;43.570;1.448;2023-09-18T07:34:33;99239.66;;;20.10;100.00
28306;BME280;7516;43.570;1.448;2023-09-18T07:37:01;99245.31;;;20.14;100.00
28306;BME280;7516;43.570;1.448;2023-09-18T07:39:28;99243.50;;;20.19;100.00
28306;BME280;7516;43.570;1.448;2023-09-18T07:41:56;99247.84;;;20.25;100.00
28306;BME280;7516;43.570;1.448;2023-09-18T07:44:25;99254.28;;;20.29;100.00
28306;BME280;7516;43.570;1.448;2023-09-18T07:46:52;99248.00;;;20.36;100.00
28306;BME280;7516;43.570;1.448;2023-09-18T07:49:20;99258.91;;;20.34;100.00
28306;BME280;7516;43.570;1.448;2023-09-18T07:51:48;99255.50;;;20.39;100.00
28306;BME280;7516;43.570;1.448;2023-09-18T07:54:15;99252.66;;;20.45;100.00
28306;BME280;7516;43.570;1.448;2023-09-18T07:56:43;99264.69;;;20.48;100.00
28306;BME280;7516;43.570;1.448;2023-09-18T07:59:10;99271.66;;;20.54;100.00
28306;BME280;7516;43.570;1.448;2023-09-18T08:01:42;99270.13;;;20.58;100.00
28306;BME280;7516;43.570;1.448;2023-09-18T08:04:09;99279.22;;;20.62;100.00
28306;BME280;7516;43.570;1.448;2023-09-18T08:06:37;99271.28;;;20.67;100.00
28306;BME280;7516;43.570;1.448;2023-09-18T08:09:07;99275.81;;;20.67;100.00
28306;BME280;7516;43.570;1.448;2023-09-18T08:11:35;99265.91;;;20.62;100.00
28306;BME280;7516;43.570;1.448;2023-09-18T08:14:07;99274.22;;;20.65;100.00
28306;BME280;7516;43.570;1.448;2023-09-18T08:16:37;99279.34;;;20.72;100.00
28306;BME280;7516;43.570;1.448;2023-09-18T08:19:06;99285.25;;;20.74;100.00
28306;BME280;7516;43.570;1.448;2023-09-18T08:21:33;99288.44;;;20.76;100.00
28306;BME280;7516;43.570;1.448;2023-09-18T08:24:01;99277.78;;;20.76;100.00
28306;BME280;7516;43.570;1.448;2023-09-18T08:26:29;99283.91;;;20.77;100.00
28306;BME280;7516;43.570;1.448;2023-09-18T08:28:56;99286.84;;;20.75;100.00
28306;BME280;7516;43.570;1.448;2023-09-18T08:31:23;99280.41;;;20.71;100.00
28306;BME280;7516;43.570;1.448;2023-09-18T08:33:53;99275.91;;;20.77;100.00
28306;BME280;7516;43.570;1.448;2023-09-18T08:36:22;99278.66;;;20.82;100.00
28306;BME280;7516;43.570;1.448;2023-09-18T08:38:50;99298.69;;;20.84;100.00
28306;BME280;7516;43.570;1.448;2023-09-18T08:41:19;99289.59;;;20.85;100.00
28306;BME280;7516;43.570;1.448;2023-09-18T08:43:48;99294.44;;;20.88;100.00
28306;BME280;7516;43.570;1.448;2023-09-18T08:46:17;99297.66;;;20.90;100.00
28306;BME280;7516;43.570;1.448;2023-09-18T08:48:45;99291.81;;;20.93;100.00
28306;BME280;7516;43.570;1.448;2023-09-18T08:51:13;99298.78;;;20.94;100.00
28306;BME280;7516;43.570;1.448;2023-09-18T08:53:43;99297.78;;;21.00;100.00
28306;BME280;7516;43.570;1.448;2023-09-18T08:56:11;99301.78;;;21.03;100.00
28306;BME280;7516;43.570;1.448;2023-09-18T08:58:40;99309.31;;;21.06;100.00
28306;BME280;7516;43.570;1.448;2023-09-18T09:01:09;99316.28;;;21.12;100.00
28306;BME280;7516;43.570;1.448;2023-09-18T09:03:37;99324.25;;;21.07;100.00
28306;BME280;7516;43.570;1.448;2023-09-18T09:06:05;99318.91;;;21.07;100.00
28306;BME280;7516;43.570;1.448;2023-09-18T09:08:34;99319.97;;;21.06;100.00
28306;BME280;7516;43.570;1.448;2023-09-18T09:11:03;99314.38;;;21.08;100.00
28306;BME280;7516;43.570;1.448;2023-09-18T09:13:31;99318.41;;;21.10;100.00
28306;BME280;7516;43.570;1.448;2023-09-18T09:16:00;99326.13;;;21.12;100.00
28306;BME280;7516;43.570;1.448;2023-09-18T09:18:29;99330.41;;;21.13;100.00
28306;BME280;7516;43.570;1.448;2023-09-18T09:20:59;99332.59;;;21.16;100.00
28306;BME280;7516;43.570;1.448;2023-09-18T09:23:29;99326.81;;;21.19;100.00
28306;BME280;7516;43.570;1.448;2023-09-18T09:26:15;99323.63;;;21.22;100.00
28306;BME280;7516;43.570;1.448;2023-09-18T09:28:43;99328.47;;;21.25;100.00
28306;BME280;7516;43.570;1.448;2023-09-18T09:31:11;99329.56;;;21.29;100.00
28306;BME280;7516;43.570;1.448;2023-09-18T09:33:51;99339.16;;;21.30;100.00
28306;BME280;7516;43.570;1.448;2023-09-18T09:36:20;99342.69;;;21.35;100.00
28306;BME280;7516;43.570;1.448;2023-09-18T09:38:47;99349.38;;;21.38;100.00
28306;BME280;7516;43.570;1.448;2023-09-18T09:41:19;99350.50;;;21.42;100.00
28306;BME280;7516;43.570;1.448;2023-09-18T09:43:46;99354.25;;;21.46;100.00
28306;BME280;7516;43.570;1.448;2023-09-18T09:46:16;99359.91;;;21.50;100.00
28306;BME280;7516;43.570;1.448;2023-09-18T09:48:59;99358.84;;;21.51;100.00
28306;BME280;7516;43.570;1.448;2023-09-18T09:51:27;99355.41;;;21.55;100.00
28306;BME280;7516;43.570;1.448;2023-09-18T09:53:55;99355.97;;;21.57;100.00
28306;BME280;7516;43.570;1.448;2023-09-18T09:59:20;99357.38;;;21.65;100.00
28306;BME280;7516;43.570;1.448;2023-09-18T10:01:48;99359.28;;;21.69;100.00
28306;BME280;7516;43.570;1.448;2023-09-18T10:04:17;99368.38;;;21.73;100.00
28306;BME280;7516;43.570;1.448;2023-09-18T10:06:50;99362.81;;;21.75;100.00
28306;BME280;7516;43.570;1.448;2023-09-18T10:09:22;99370.56;;;21.76;100.00
28306;BME280;7516;43.570;1.448;2023-09-18T10:11:52;99379.63;;;21.75;100.00
28306;BME280;7516;43.570;1.448;2023-09-18T10:14:29;99376.47;;;21.84;100.00
28306;BME280;7516;43.570;1.448;2023-09-18T10:17:04;99382.63;;;21.84;100.00
28306;BME280;7516;43.570;1.448;2023-09-18T10:19:43;99384.56;;;21.89;100.00
28306;BME280;7516;43.570;1.448;2023-09-18T10:22:17;99387.69;;;21.81;100.00
28306;BME280;7516;43.570;1.448;2023-09-18T10:24:52;99388.28;;;21.88;100.00
28306;BME280;7516;43.570;1.448;2023-09-18T10:27:23;99387.59;;;21.97;100.00
28306;BME280;7516;43.570;1.448;2023-09-18T10:29:54;99389.00;;;21.78;100.00
28306;BME280;7516;43.570;1.448;2023-09-18T10:32:23;99385.75;;;22.03;100.00
28306;BME280;7516;43.570;1.448;2023-09-18T10:34:54;99396.94;;;22.00;100.00
28306;BME280;7516;43.570;1.448;2023-09-18T10:37:23;99393.50;;;22.04;100.00
28306;BME280;7516;43.570;1.448;2023-09-18T10:39:51;99397.34;;;22.19;100.00
28306;BME280;7516;43.570;1.448;2023-09-18T10:42:21;99404.06;;;22.21;100.00
28306;BME280;7516;43.570;1.448;2023-09-18T10:44:50;99395.00;;;22.22;100.00
28306;BME280;7516;43.570;1.448;2023-09-18T10:47:19;99394.50;;;22.25;100.00
28306;BME280;7516;43.570;1.448;2023-09-18T10:49:48;99400.66;;;22.31;100.00
28306;BME280;7516;43.570;1.448;2023-09-18T10:52:16;99399.28;;;22.28;100.00
28306;BME280;7516;43.570;1.448;2023-09-18T10:54:45;99400.34;;;22.27;100.00
28306;BME280;7516;43.570;1.448;2023-09-18T10:57:12;99396.44;;;22.40;100.00
28306;BME280;7516;43.570;1.448;2023-09-18T10:59:44;99395.97;;;22.48;100.00
28306;BME280;7516;43.570;1.448;2023-09-18T11:02:15;99400.59;;;22.26;100.00
28306;BME280;7516;43.570;1.448;2023-09-18T11:04:44;99396.78;;;22.53;100.00
28306;BME280;7516;43.570;1.448;2023-09-18T11:07:20;99394.09;;;22.48;100.00
28306;BME280;7516;43.570;1.448;2023-09-18T11:09:49;99392.34;;;22.27;100.00
28306;BME280;7516;43.570;1.448;2023-09-18T11:12:17;99387.22;;;22.58;100.00
28306;BME280;7516;43.570;1.448;2023-09-18T11:14:46;99385.41;;;22.68;100.00
28306;BME280;7516;43.570;1.448;2023-09-18T11:17:54;99390.53;;;22.75;100.00
28306;BME280;7516;43.570;1.448;2023-09-18T11:20:27;99400.09;;;22.71;100.00
28306;BME280;7516;43.570;1.448;2023-09-18T11:22:57;99401.81;;;22.87;100.00
28306;BME280;7516;43.570;1.448;2023-09-18T11:25:35;99393.63;;;22.62;100.00
28306;BME280;7516;43.570;1.448;2023-09-18T11:28:04;99400.75;;;22.83;100.00
28306;BME280;7516;43.570;1.448;2023-09-18T11:30:34;99403.28;;;23.10;100.00
28306;BME280;7516;43.570;1.448;2023-09-18T11:33:03;99392.59;;;23.15;100.00
28306;BME280;7516;43.570;1.448;2023-09-18T11:35:33;99384.31;;;23.11;100.00
28306;BME280;7516;43.570;1.448;2023-09-18T11:38:05;99379.78;;;23.22;100.00
28306;BME280;7516;43.570;1.448;2023-09-18T11:40:34;99374.75;;;23.31;100.00
28306;BME280;7516;43.570;1.448;2023-09-18T11:43:21;99364.59;;;23.38;100.00
28306;BME280;7516;43.570;1.448;2023-09-18T11:45:54;99371.88;;;23.52;100.00
28306;BME280;7516;43.570;1.448;2023-09-18T11:48:22;99369.19;;;23.68;100.00
28306;BME280;7516;43.570;1.448;2023-09-18T11:50:56;99363.84;;;23.78;100.00
28306;BME280;7516;43.570;1.448;2023-09-18T11:53:26;99378.59;;;23.85;100.00
28306;BME280;7516;43.570;1.448;2023-09-18T11:55:54;99365.47;;;23.99;100.00
28306;BME280;7516;43.570;1.448;2023-09-18T11:58:22;99370.28;;;24.12;100.00
28306;BME280;7516;43.570;1.448;2023-09-18T12:00:50;99359.03;;;24.15;100.00
28306;BME280;7516;43.570;1.448;2023-09-18T12:03:19;99360.09;;;24.14;100.00
28306;BME280;7516;43.570;1.448;2023-09-18T12:05:56;99369.19;;;24.49;100.00
28306;BME280;7516;43.570;1.448;2023-09-18T12:08:24;99361.41;;;24.62;100.00
28306;BME280;7516;43.570;1.448;2023-09-18T12:10:54;99353.88;;;24.69;100.00
28306;BME280;7516;43.570;1.448;2023-09-18T12:13:23;99357.03;;;24.82;100.00
28306;BME280;7516;43.570;1.448;2023-09-18T12:15:56;99354.84;;;24.99;100.00
28306;BME280;7516;43.570;1.448;2023-09-18T12:18:25;99360.16;;;25.14;100.00
28306;BME280;7516;43.570;1.448;2023-09-18T12:20:56;99347.25;;;25.16;100.00
28306;BME280;7516;43.570;1.448;2023-09-18T12:23:25;99355.28;;;25.21;100.00
28306;BME280;7516;43.570;1.448;2023-09-18T12:25:59;99354.19;;;25.22;100.00
28306;BME280;7516;43.570;1.448;2023-09-18T12:28:27;99350.38;;;25.33;100.00
28306;BME280;7516;43.570;1.448;2023-09-18T12:30:56;99363.97;;;25.47;100.00
28306;BME280;7516;43.570;1.448;2023-09-18T12:33:25;99366.91;;;25.51;100.00
28306;BME280;7516;43.570;1.448;2023-09-18T12:35:54;99364.78;;;25.47;100.00
28306;BME280;7516;43.570;1.448;2023-09-18T12:38:23;99370.91;;;25.58;100.00
28306;BME280;7516;43.570;1.448;2023-09-18T12:40:53;99362.09;;;25.47;100.00
28306;BME280;7516;43.570;1.448;2023-09-18T12:43:21;99361.13;;;25.28;100.00
28306;BME280;7516;43.570;1.448;2023-09-18T12:45:51;99359.06;;;25.64;100.00
28306;BME280;7516;43.570;1.448;2023-09-18T12:48:19;99360.69;;;25.60;100.00
28306;BME280;7516;43.570;1.448;2023-09-18T12:50:51;99361.63;;;25.79;100.00
28306;BME280;7516;43.570;1.448;2023-09-18T12:53:23;99360.59;;;25.75;100.00
28306;BME280;7516;43.570;1.448;2023-09-18T12:55:50;99371.06;;;25.77;100.00
28306;BME280;7516;43.570;1.448;2023-09-18T12:58:19;99367.88;;;25.70;100.00
28306;BME280;7516;43.570;1.448;2023-09-18T13:00:48;99377.66;;;25.90;100.00
28306;BME280;7516;43.570;1.448;2023-09-18T13:03:17;99388.66;;;25.93;100.00
28306;BME280;7516;43.570;1.448;2023-09-18T13:05:45;99380.09;;;25.86;100.00
28306;BME280;7516;43.570;1.448;2023-09-18T13:08:14;99392.09;;;25.99;100.00
28306;BME280;7516;43.570;1.448;2023-09-18T13:10:46;99389.66;;;26.02;100.00
28306;BME280;7516;43.570;1.448;2023-09-18T13:13:17;99376.13;;;26.12;100.00